Gakona, AK (99586)

11:11 AM AKST on December 26, 2014 (GMT -0900)
Copper Bluff Subdivision | Change Station
CLOSE
Current Station
Personal Weather Station
Location: Gakona, AK
Elevation: 1625 ft
Nearby Weather Stations

Elev 1625 ft 62.29 °N, 145.34 °W | Updated 9 minutes ago

Overcast
Overcast
14.9 °F
Feels Like 15 °F
N
0.0
Wind Variable Wind from WNW
Gusts 0.0 mph

Today
High -- | Low -- °F
--% Chance of Precip.
Yesterday
High -- | Low -- °F
Precip. -- in
10:09 AM 3:14 PM
Waxing Crescent, 28% visible
Pressure 30.08 in
Visibility 8.0 miles
Clouds Overcast 400 ft
Windchill 15 °F
Dew Point 13 °F
Humidity 93%
Rainfall 0.00 in
Snow Depth Not available.
UV 0.0 out of 12
Pollen Not available.
Air Quality Not available.
Flu Activity Not available.
METAR PAGK 261953Z AUTO 00000KT 8SM OVC004 M10/M12 A2995 RMK AO2 SLP186 T11001122 TSNO $

More Conditions Fewer Conditions

Pressure 30.08 in
Visibility 8.0 miles
Clouds Overcast 400 ft
Windchill 15 °F
Dew Point 13 °F
Humidity 93%
Rainfall 0.00 in
Snow Depth Not available.
UV 0.0 out of 12
Pollen Not available.
Air Quality Not available.
Flu Activity Not available.
METAR PAGK 261953Z AUTO 00000KT 8SM OVC004 M10/M12 A2995 RMK AO2 SLP186 T11001122 TSNO $

More Conditions Fewer Conditions

10-Day Weather Forecast

Almanac

Astronomy

Dec. 26, 2014 Rise Set
Actual Time
Civil Twilight
Nautical Twilight
Astronomical Twilight
Moon
Length of Visible Light
Length of Day
Tomorrow will be .
, % of the Moon is Illuminated

Today's Extremes

State Highs State Lows

Community

WunderPhotos

Upload Photos

1,780,681 photos uploaded!

WunderBlogs® & News

Nearby

Air Quality

  Air Quality AQ Index Pollutant
Not available.

Snow Depth

Station Depth Elevation

Earthquake Activity

City Distance Mag. Time & Date
Minimum magnitude displayed is 2.5.

Coastal Water Temperatures

Place Temperature

Nearby Weather Stations